createdAt,value
2023-05-05T03:51:29.509Z,100222.19
2023-05-05T03:56:52.567Z,100215.31
2023-05-05T04:02:15.142Z,100218.94
2023-05-05T04:07:38.081Z,100216.94
2023-05-05T04:16:34.659Z,100249.50
2023-05-05T04:21:57.116Z,100245.69
2023-05-05T04:27:19.148Z,100252.41
2023-05-05T04:32:41.429Z,100248.28
2023-05-05T04:38:04.507Z,100246.22
2023-05-05T04:43:26.463Z,100241.63
2023-05-05T04:48:48.937Z,100236.59
2023-05-05T04:54:11.167Z,100238.69
2023-05-05T04:59:33.821Z,100232.78
2023-05-05T05:04:57.118Z,100235.34
2023-05-05T05:10:20.612Z,100240.19
2023-05-05T05:15:42.946Z,100238.50
2023-05-05T05:21:08.301Z,100236.53
2023-05-05T05:26:30.509Z,100238.03
2023-05-05T05:31:52.519Z,100252.22
2023-05-05T05:37:14.367Z,100239.03
2023-05-05T05:42:36.279Z,100225.84
2023-05-05T05:47:59.898Z,100241.00
2023-05-05T05:53:22.346Z,100237.53
2023-05-05T05:58:45.758Z,100248.19
2023-05-05T06:04:08.258Z,100250.91
2023-05-05T06:09:30.545Z,100245.94
2023-05-05T06:14:52.563Z,100256.00
2023-05-05T06:20:14.575Z,100257.72
2023-05-05T06:25:37.262Z,100246.50
2023-05-05T06:30:59.608Z,100250.81
2023-05-05T06:36:21.555Z,100241.53
2023-05-05T06:41:43.498Z,100229.81
2023-05-05T06:47:05.254Z,100234.06
2023-05-05T06:52:27.452Z,100244.63
2023-05-05T06:57:49.459Z,100230.81
2023-05-05T07:03:11.488Z,100234.94
2023-05-05T07:08:33.373Z,100241.84
2023-05-05T07:13:55.460Z,100248.38
2023-05-05T07:19:18.052Z,100252.97
2023-05-05T07:24:40.091Z,100266.06
2023-05-05T07:30:04.025Z,100247.94
2023-05-05T07:35:29.031Z,100242.56
2023-05-05T07:40:51.073Z,100244.41
2023-05-05T07:46:14.299Z,100243.47
2023-05-05T07:51:35.828Z,100250.16
2023-05-05T07:56:58.076Z,100234.16
2023-05-05T08:02:20.137Z,100238.03
2023-05-05T08:07:41.972Z,100241.53
2023-05-05T08:13:03.923Z,100255.94
2023-05-05T08:18:27.027Z,100249.56
2023-05-05T08:23:48.745Z,100248.84
2023-05-05T08:29:10.651Z,100253.31
2023-05-05T08:34:32.808Z,100239.59
2023-05-05T08:39:54.732Z,100256.38
2023-05-05T08:45:16.635Z,100250.44
2023-05-05T08:50:40.842Z,100244.41
2023-05-05T08:56:04.782Z,100252.63
2023-05-05T09:01:27.282Z,100250.75
2023-05-05T10:59:45.729Z,100285.63
2023-05-05T11:05:09.976Z,100287.16
2023-05-05T11:10:54.632Z,100289.03
2023-05-05T11:16:50.849Z,100292.06
2023-05-05T11:22:13.063Z,100287.50
2023-05-05T11:28:07.669Z,100300.31
2023-05-05T11:33:38.916Z,100301.19
2023-05-05T11:39:08.140Z,100279.63
2023-05-05T11:44:35.095Z,100278.75
2023-05-05T11:49:59.680Z,100296.53
2023-05-05T11:55:24.659Z,100299.09
2023-05-05T12:00:49.256Z,100297.25
2023-05-05T12:06:13.430Z,100297.50
2023-05-05T12:11:36.759Z,100301.28
2023-05-05T12:17:00.165Z,100313.41
2023-05-05T12:22:25.683Z,100307.53
2023-05-05T12:27:53.998Z,100313.34
2023-05-05T12:33:17.006Z,100320.81
2023-05-05T12:38:39.898Z,100312.84
2023-05-05T12:44:06.328Z,100316.81
2023-05-05T12:49:30.211Z,100312.31
2023-05-05T12:55:00.653Z,100309.88
2023-05-05T13:00:19.042Z,100317.81
2023-05-05T13:05:43.568Z,100314.34
2023-05-05T13:11:07.243Z,100331.72
2023-05-05T13:16:32.488Z,100333.72
2023-05-05T13:21:56.223Z,100329.25
2023-05-05T13:27:19.091Z,100348.44
2023-05-05T13:32:42.042Z,100337.41
2023-05-05T13:38:05.967Z,100331.69
2023-05-05T13:43:32.670Z,100339.44
2023-05-05T13:48:56.571Z,100348.59
2023-05-05T13:54:19.553Z,100357.22
2023-05-05T13:59:42.215Z,100354.53
2023-05-05T14:05:07.711Z,100352.94
2023-05-05T14:10:32.307Z,100348.16
2023-05-05T14:15:55.275Z,100350.81
2023-05-05T14:21:21.173Z,100351.09
2023-05-05T14:26:44.304Z,100357.81
2023-05-05T14:32:07.209Z,100357.25
2023-05-05T14:37:29.972Z,100363.13
2023-05-05T14:42:52.685Z,100367.63
2023-05-05T14:48:15.445Z,100368.72
2023-05-05T14:53:38.173Z,100371.59
2023-05-05T14:59:00.853Z,100370.53
2023-05-05T15:04:23.971Z,100369.28
2023-05-05T15:09:46.769Z,100367.88
2023-05-05T15:15:10.589Z,100374.91
2023-05-05T15:20:33.743Z,100370.38
2023-05-05T15:25:56.548Z,100379.22
2023-05-05T15:31:20.100Z,100387.34
2023-05-05T15:36:43.777Z,100387.22
2023-05-05T15:42:08.282Z,100392.00
2023-05-05T15:47:33.310Z,100401.56
2023-05-05T15:52:57.679Z,100407.63
2023-05-05T15:58:20.224Z,100419.06
2023-05-05T16:03:42.693Z,100418.25
2023-05-05T16:09:05.675Z,100433.44
2023-05-05T16:14:33.575Z,100428.97
2023-05-05T16:19:57.373Z,100432.63
2023-05-05T16:25:20.412Z,100441.66
2023-05-05T16:30:43.773Z,100444.38
2023-05-05T16:36:06.057Z,100452.81
2023-05-05T16:41:27.821Z,100453.13
2023-05-05T16:46:49.776Z,100449.72
2023-05-05T16:52:12.214Z,100455.09
2023-05-05T16:57:34.902Z,100460.59
2023-05-05T17:02:57.605Z,100459.78
2023-05-05T17:08:19.758Z,100465.53
2023-05-05T17:13:41.885Z,100475.34
2023-05-05T17:19:03.730Z,100477.44
2023-05-05T17:24:26.432Z,100471.22
2023-05-05T17:29:48.710Z,100468.69
2023-05-05T17:35:12.038Z,100468.66
2023-05-05T17:40:35.017Z,100465.50
2023-05-05T17:45:57.761Z,100465.88
2023-05-05T17:51:20.290Z,100456.13
2023-05-05T17:56:46.070Z,100451.94
2023-05-05T18:02:12.467Z,100446.66
2023-05-05T18:07:36.115Z,100454.94
2023-05-05T18:12:57.802Z,100453.41
2023-05-05T18:18:19.848Z,100453.06
2023-05-05T18:23:42.120Z,100453.44
2023-05-05T18:29:04.176Z,100449.81
2023-05-05T18:34:28.351Z,100452.03
2023-05-05T18:39:51.891Z,100445.69
2023-05-05T18:45:15.150Z,100447.66
2023-05-05T18:50:38.565Z,100452.59
2023-05-05T18:56:03.446Z,100453.41
2023-05-05T19:01:26.830Z,100444.50
2023-05-05T19:06:51.192Z,100451.81
2023-05-05T19:12:16.398Z,100451.88
2023-05-05T19:17:39.823Z,100448.31
2023-05-05T19:23:06.088Z,100444.13
2023-05-05T19:28:31.147Z,100434.53
2023-05-05T19:34:00.899Z,100437.06
2023-05-05T19:39:23.133Z,100440.97
2023-05-05T19:44:45.603Z,100446.34
2023-05-05T19:50:09.022Z,100434.50
2023-05-05T19:55:39.517Z,100442.88
2023-05-05T20:01:01.894Z,100429.09
2023-05-05T20:06:24.870Z,100429.31
2023-05-05T20:11:47.339Z,100421.81
2023-05-05T20:17:09.656Z,100421.22
2023-05-05T20:22:31.650Z,100421.84
2023-05-05T20:27:53.633Z,100409.22
2023-05-05T20:33:16.272Z,100414.53
2023-05-05T20:38:39.665Z,100405.78
2023-05-05T20:44:01.484Z,100398.44
2023-05-05T20:49:23.778Z,100394.19
2023-05-05T20:54:46.010Z,100382.56
2023-05-05T21:00:09.605Z,100384.59
2023-05-05T21:05:32.338Z,100383.19
2023-05-05T21:10:55.381Z,100383.78
2023-05-05T21:16:17.908Z,100384.97
2023-05-05T21:22:05.061Z,100383.56
2023-05-05T21:27:27.438Z,100383.13
2023-05-05T21:32:49.648Z,100371.13
2023-05-05T21:38:12.210Z,100370.91
2023-05-05T21:43:34.357Z,100370.28
2023-05-05T21:48:57.158Z,100369.03
2023-05-05T21:54:19.526Z,100372.03
2023-05-05T21:59:42.029Z,100365.94
2023-05-05T22:05:05.245Z,100366.16
2023-05-05T22:10:28.325Z,100377.06
2023-05-05T22:15:50.987Z,100374.59
2023-05-05T22:21:13.055Z,100372.97
2023-05-05T22:26:35.443Z,100366.50
2023-05-05T22:31:57.703Z,100376.38
2023-05-05T22:37:20.108Z,100373.75
2023-05-05T22:42:42.591Z,100369.69
2023-05-05T22:48:05.145Z,100371.66
2023-05-05T22:53:27.490Z,100375.22
2023-05-05T22:58:49.712Z,100375.47
2023-05-05T23:04:12.146Z,100375.41
2023-05-05T23:09:33.862Z,100363.63
2023-05-05T23:14:55.652Z,100361.19
2023-05-05T23:20:18.134Z,100359.72
2023-05-05T23:25:40.453Z,100363.38
2023-05-05T23:31:02.525Z,100362.91
2023-05-05T23:36:24.410Z,100368.00
2023-05-05T23:41:46.106Z,100363.31
2023-05-05T23:47:10.722Z,100367.78
2023-05-05T23:52:33.333Z,100364.53
2023-05-05T23:57:54.978Z,100354.34
